Time;durP1;ratioP1;P1;durP2;ratioP2;P2;SDS_P1;SDS_P2;PMS_P1;PMS_P2;Temp;Humidity;BMP_temperature;BMP_pressure;BME280_temperature;BME280_humidity;BME280_pressure;Samples;Min_cycle;Max_cycle;Signal;HPM_P1;HPM_P2
2022/05/28 00:00:31;;;;;;;5.85;0.60;;;11.90;99.90;;;;;;4998635;28;20049;-81
2022/05/28 00:03:11;;;;;;;6.78;0.63;;;11.90;99.90;;;;;;5013229;28;20041;-81
2022/05/28 00:05:50;;;;;;;6.97;1.15;;;11.80;99.90;;;;;;5020206;28;20045;-81
2022/05/28 00:08:17;;;;;;;9.73;1.30;;;11.80;99.90;;;;;;5021925;28;20914;-81
2022/05/28 00:10:46;;;;;;;5.07;0.77;;;11.80;99.90;;;;;;5018850;28;20876;-80
2022/05/28 00:13:23;;;;;;;8.50;1.25;;;11.70;99.90;;;;;;5023745;28;20026;-80
2022/05/28 00:20:16;;;;;;;6.43;0.93;;;11.60;99.90;;;;;;4979278;28;20050;-81
2022/05/28 00:23:23;;;;;;;8.30;1.10;;;11.60;99.90;;;;;;4961849;28;20389;-81
2022/05/28 00:26:15;;;;;;;9.45;0.90;;;11.60;99.90;;;;;;4949709;28;20442;-81
2022/05/28 00:32:41;;;;;;;5.55;0.68;;;11.50;99.90;;;;;;4917379;29;20403;-81
2022/05/28 00:39:42;;;;;;;;;;;;;;;;;;;;;
2022/05/28 00:42:27;;;;;;;6.47;1.10;;;11.50;99.90;;;;;;4863709;29;20053;-80
2022/05/28 00:45:48;;;;;;;11.25;1.20;;;11.50;99.90;;;;;;4916319;29;20648;-81
2022/05/28 00:48:34;;;;;;;6.85;0.82;;;11.40;99.90;;;;;;4892846;29;20083;-80
2022/05/28 00:51:10;;;;;;;9.02;0.80;;;11.30;99.90;;;;;;4924394;29;20035;-80
2022/05/28 00:54:08;;;;;;;3.95;0.57;;;11.30;99.90;;;;;;4922961;29;20040;-80
2022/05/28 00:56:49;;;;;;;7.07;0.90;;;11.30;99.90;;;;;;4899000;29;20063;-80
2022/05/28 01:00:15;;;;;;;5.93;0.70;;;11.30;99.90;;;;;;4914189;28;20043;-80
2022/05/28 01:04:10;;;;;;;8.90;1.10;;;11.20;99.90;;;;;;4878313;29;20033;-81
2022/05/28 01:07:59;;;;;;;6.70;0.90;;;11.20;99.90;;;;;;4916768;29;20047;-82
2022/05/28 01:11:26;;;;;;;9.77;1.13;;;11.10;99.90;;;;;;4914633;29;20389;-80
2022/05/28 01:26:18;;;;;;;9.07;1.23;;;11.00;99.90;;;;;;4912827;29;20278;-82
2022/05/28 01:29:15;;;;;;;9.88;1.02;;;11.00;99.90;;;;;;4932036;28;20050;-82
2022/05/28 01:32:05;;;;;;;8.18;0.80;;;11.00;99.90;;;;;;4949009;28;20032;-82
2022/05/28 01:34:36;;;;;;;4.43;0.63;;;11.00;99.90;;;;;;4967028;28;20490;-83
2022/05/28 01:37:05;;;;;;;7.93;1.10;;;11.00;99.90;;;;;;4983290;28;20045;-83
2022/05/28 01:39:40;;;;;;;11.48;1.00;;;11.00;99.90;;;;;;4997808;28;20030;-83
2022/05/28 01:42:11;;;;;;;7.97;1.10;;;11.00;99.90;;;;;;4998865;28;20837;-83
2022/05/28 01:44:40;;;;;;;8.95;1.10;;;11.00;99.90;;;;;;5021769;28;20052;-83
2022/05/28 01:47:10;;;;;;;8.60;1.08;;;11.00;99.90;;;;;;5017411;28;20042;-83
2022/05/28 01:50:13;;;;;;;5.40;0.57;;;11.00;99.90;;;;;;5028214;28;20060;-82
2022/05/28 01:53:00;;;;;;;11.13;1.40;;;11.00;99.90;;;;;;5001534;28;20041;-82
2022/05/28 01:55:55;;;;;;;7.45;1.10;;;11.00;99.90;;;;;;5036447;28;20370;-82
2022/05/28 01:58:44;;;;;;;6.68;0.80;;;11.00;99.90;;;;;;5015325;28;20056;-81
2022/05/28 02:01:17;;;;;;;7.75;0.95;;;11.00;99.90;;;;;;4984193;28;20037;-81
2022/05/28 02:03:58;;;;;;;6.65;0.80;;;11.00;99.90;;;;;;5002689;28;20060;-81
2022/05/28 02:06:27;;;;;;;5.43;0.80;;;11.00;99.90;;;;;;5017645;28;20049;-81
2022/05/28 02:09:21;;;;;;;15.48;1.20;;;11.00;99.90;;;;;;5016696;28;20043;-82
2022/05/28 02:12:35;;;;;;;6.65;0.90;;;11.00;99.90;;;;;;5003506;28;20042;-82
2022/05/28 02:15:50;;;;;;;7.22;0.90;;;11.00;99.90;;;;;;5010087;28;20038;-81
2022/05/28 02:19:26;;;;;;;9.50;1.05;;;11.00;99.90;;;;;;4959445;28;20043;-82
2022/05/28 02:22:24;;;;;;;5.35;0.93;;;10.90;99.90;;;;;;4894811;28;20042;-82
2022/05/28 02:25:05;;;;;;;8.45;1.08;;;11.00;99.90;;;;;;4949657;28;20062;-81
2022/05/28 02:27:34;;;;;;;11.02;1.15;;;10.90;99.90;;;;;;4928947;28;20031;-81
2022/05/28 02:30:33;;;;;;;7.57;0.85;;;10.90;99.90;;;;;;4966591;28;20026;-81
2022/05/28 02:33:13;;;;;;;8.30;1.10;;;10.90;99.90;;;;;;4989921;28;20545;-81
2022/05/28 02:35:45;;;;;;;8.57;0.70;;;10.90;99.90;;;;;;4990555;28;20051;-82
2022/05/28 02:38:22;;;;;;;7.05;0.85;;;10.90;99.90;;;;;;4981928;28;20047;-81
2022/05/28 02:40:59;;;;;;;9.10;1.10;;;10.90;99.90;;;;;;4984783;28;20046;-81
2022/05/28 02:43:47;;;;;;;8.88;1.13;;;10.80;99.90;;;;;;4929938;28;20515;-82
2022/05/28 02:46:14;;;;;;;8.88;0.80;;;10.80;99.90;;;;;;4971175;28;20346;-82
2022/05/28 02:48:40;;;;;;;7.72;1.58;;;10.80;99.90;;;;;;4967894;28;20497;-82
2022/05/28 02:51:11;;;;;;;10.65;1.20;;;10.80;99.90;;;;;;4978991;28;20077;-82
2022/05/28 02:53:38;;;;;;;7.32;0.80;;;10.70;99.90;;;;;;4966676;28;20038;-81
2022/05/28 02:56:06;;;;;;;9.32;1.02;;;10.80;99.90;;;;;;4968936;28;20038;-81
2022/05/28 02:58:33;;;;;;;9.48;0.90;;;10.70;99.90;;;;;;4953464;28;20057;-81
2022/05/28 03:01:01;;;;;;;8.00;1.50;;;10.70;99.90;;;;;;4986186;28;20559;-81
2022/05/28 03:03:27;;;;;;;8.85;1.02;;;10.70;99.90;;;;;;4985932;28;20049;-81
2022/05/28 03:05:55;;;;;;;7.53;1.00;;;10.70;99.90;;;;;;4989638;28;20030;-81
2022/05/28 03:08:21;;;;;;;9.70;1.15;;;10.70;99.90;;;;;;4956666;28;20390;-81
2022/05/28 03:10:48;;;;;;;4.78;0.90;;;10.70;99.90;;;;;;4977710;28;20045;-81
2022/05/28 03:13:18;;;;;;;7.53;0.77;;;10.70;99.90;;;;;;4952200;28;20032;-81
2022/05/28 03:15:44;;;;;;;7.93;1.08;;;10.70;99.90;;;;;;4986418;28;20042;-82
2022/05/28 03:18:10;;;;;;;9.95;1.08;;;10.70;99.90;;;;;;4962011;28;20025;-81
2022/05/28 03:20:38;;;;;;;6.40;1.35;;;10.70;99.90;;;;;;4971092;28;20489;-81
2022/05/28 03:23:08;;;;;;;9.35;1.30;;;10.70;99.90;;;;;;4988975;28;20060;-81
2022/05/28 03:25:34;;;;;;;9.88;1.20;;;10.70;99.90;;;;;;5005175;28;20018;-82
2022/05/28 03:28:01;;;;;;;10.02;0.80;;;10.60;99.90;;;;;;5019874;28;20020;-82
2022/05/28 03:30:27;;;;;;;9.38;1.20;;;10.60;99.90;;;;;;5009722;28;20042;-81
2022/05/28 03:32:54;;;;;;;11.77;1.08;;;10.60;99.90;;;;;;5007859;28;20024;-82
2022/05/28 03:35:20;;;;;;;7.75;1.08;;;10.50;99.90;;;;;;5012280;28;20044;-82
2022/05/28 03:37:46;;;;;;;8.82;0.70;;;10.60;99.90;;;;;;5026123;28;20029;-82
2022/05/28 03:40:13;;;;;;;11.57;1.73;;;10.50;99.90;;;;;;4996595;28;20048;-82
2022/05/28 03:42:52;;;;;;;9.13;1.10;;;10.50;99.90;;;;;;5012343;28;20057;-82
2022/05/28 03:46:07;;;;;;;13.35;0.98;;;10.50;99.90;;;;;;4984067;28;20042;-82
2022/05/28 03:49:43;;;;;;;5.97;0.80;;;10.50;99.90;;;;;;4966648;28;20027;-82
2022/05/28 03:52:39;;;;;;;6.35;0.75;;;10.40;99.90;;;;;;4966823;28;20398;-83
2022/05/28 03:55:22;;;;;;;9.07;1.20;;;10.40;99.90;;;;;;4930106;29;20043;-83
2022/05/28 03:58:00;;;;;;;8.95;1.10;;;10.40;99.90;;;;;;4956038;28;20051;-82
2022/05/28 04:00:40;;;;;;;9.38;1.73;;;10.40;99.90;;;;;;4932621;28;20050;-83
2022/05/28 04:03:52;;;;;;;12.30;1.20;;;10.40;99.90;;;;;;4946878;28;20031;-82
2022/05/28 04:06:25;;;;;;;9.32;1.05;;;10.40;99.90;;;;;;4949273;28;20047;-82
2022/05/28 04:08:54;;;;;;;7.47;1.38;;;10.40;99.90;;;;;;4918408;28;20038;-82
2022/05/28 04:11:29;;;;;;;5.53;0.50;;;10.40;99.90;;;;;;4930081;28;20047;-81
2022/05/28 04:13:58;;;;;;;5.40;1.10;;;10.40;99.90;;;;;;4931834;28;20403;-82
2022/05/28 04:16:26;;;;;;;6.40;0.98;;;10.50;99.90;;;;;;4942967;28;23289;-82
2022/05/28 04:19:07;;;;;;;2.88;0.57;;;10.50;99.90;;;;;;4943916;28;20055;-82
2022/05/28 04:21:51;;;;;;;7.65;0.73;;;10.60;99.90;;;;;;4948059;28;20051;-82
2022/05/28 04:24:59;;;;;;;5.25;0.60;;;10.70;99.90;;;;;;4921572;28;20510;-82
2022/05/28 04:27:30;;;;;;;10.07;1.55;;;10.80;99.90;;;;;;4992116;28;20030;-82
2022/05/28 04:30:32;;;;;;;10.07;1.20;;;10.80;99.90;;;;;;5005100;28;20042;-83
2022/05/28 04:33:24;;;;;;;;;;;10.90;99.90;;;;;;5034486;28;20045;-83
2022/05/28 04:36:14;;;;;;;7.35;1.13;;;10.90;99.90;;;;;;4993985;28;19909;-82
2022/05/28 04:38:52;;;;;;;6.90;0.52;;;11.00;99.90;;;;;;5003007;28;20053;-82
2022/05/28 04:41:19;;;;;;;7.28;0.70;;;11.10;99.90;;;;;;5002861;28;20057;-81
2022/05/28 04:43:45;;;;;;;4.80;0.50;;;11.20;99.90;;;;;;4989526;28;20056;-82
2022/05/28 04:46:12;;;;;;;7.25;0.50;;;11.30;99.90;;;;;;5006522;28;20034;-82
2022/05/28 04:48:41;;;;;;;5.72;0.70;;;11.40;99.90;;;;;;4983619;28;20033;-81
2022/05/28 04:51:07;;;;;;;5.85;0.50;;;11.50;99.90;;;;;;4975297;28;20469;-86
2022/05/28 04:53:34;;;;;;;4.90;0.68;;;11.70;99.90;;;;;;5012145;28;20033;-84
2022/05/28 04:56:01;;;;;;;5.57;0.60;;;11.80;99.90;;;;;;4993322;28;21104;-79
2022/05/28 04:58:27;;;;;;;6.03;0.63;;;12.00;99.90;;;;;;5033696;28;20032;-80
2022/05/28 05:00:54;;;;;;;3.83;0.50;;;12.20;99.90;;;;;;5022665;28;20043;-80
2022/05/28 05:03:21;;;;;;;2.38;0.40;;;12.40;99.90;;;;;;5019285;28;20021;-80
2022/05/28 05:05:48;;;;;;;6.10;0.55;;;12.60;99.90;;;;;;5038680;28;20480;-80
2022/05/28 05:08:14;;;;;;;6.07;0.63;;;12.70;99.90;;;;;;4984251;28;20037;-80
2022/05/28 05:10:41;;;;;;;8.43;0.85;;;12.80;99.90;;;;;;5005066;28;20376;-79
2022/05/28 05:13:07;;;;;;;5.55;0.60;;;12.90;99.90;;;;;;5020652;28;20026;-80
2022/05/28 05:15:34;;;;;;;7.15;0.95;;;13.00;99.90;;;;;;5007480;28;20091;-82
2022/05/28 05:18:00;;;;;;;4.32;0.70;;;13.00;99.90;;;;;;4995827;28;20044;-81
2022/05/28 05:20:26;;;;;;;4.25;0.93;;;13.10;99.90;;;;;;5036348;28;20041;-84
2022/05/28 05:22:54;;;;;;;5.28;0.70;;;13.20;99.90;;;;;;5021208;28;20032;-84
2022/05/28 05:25:21;;;;;;;7.22;0.50;;;13.20;99.90;;;;;;5002967;28;20036;-85
2022/05/28 05:27:51;;;;;;;5.55;0.45;;;13.30;99.90;;;;;;5009487;28;20476;-86
2022/05/28 05:30:18;;;;;;;5.47;0.50;;;13.40;99.90;;;;;;5022336;28;20056;-84
2022/05/28 05:32:45;;;;;;;3.97;0.45;;;13.50;99.90;;;;;;5006283;28;20033;-80
2022/05/28 05:35:12;;;;;;;5.82;0.47;;;13.50;99.90;;;;;;5023584;28;20017;-81
2022/05/28 05:37:38;;;;;;;7.80;1.15;;;13.60;99.90;;;;;;4999950;28;20404;-82
2022/05/28 05:40:05;;;;;;;4.40;0.60;;;13.80;99.90;;;;;;5004885;28;20469;-83
2022/05/28 05:46:55;;;;;;;5.70;0.50;;;13.90;99.90;;;;;;4985549;28;20501;-82
2022/05/28 05:50:13;;;;;;;7.00;0.52;;;14.20;99.90;;;;;;5006136;28;20122;-82
2022/05/28 05:52:41;;;;;;;4.82;0.60;;;14.30;99.90;;;;;;4986277;28;20041;-79
2022/05/28 05:55:45;;;;;;;5.45;0.60;;;14.50;99.90;;;;;;4986202;28;20039;-87
2022/05/28 05:58:23;;;;;;;5.00;0.50;;;14.50;99.90;;;;;;4985592;28;20485;-85
2022/05/28 06:01:06;;;;;;;3.15;0.52;;;14.70;99.90;;;;;;4985611;28;20053;-82
2022/05/28 06:03:47;;;;;;;6.07;0.65;;;14.80;99.90;;;;;;4960201;28;20045;-82
2022/05/28 06:06:30;;;;;;;4.75;0.60;;;14.90;99.90;;;;;;4974039;28;20041;-84
2022/05/28 06:12:13;;;;;;;4.50;0.50;;;15.30;99.90;;;;;;4983341;28;21664;-88
2022/05/28 06:15:24;;;;;;;8.30;0.60;;;15.70;99.90;;;;;;4990267;28;20049;-82
2022/05/28 06:18:04;;;;;;;11.93;0.80;;;16.20;99.90;;;;;;5024279;28;20045;-82
2022/05/28 06:20:34;;;;;;;6.43;0.70;;;16.50;99.90;;;;;;5038108;28;20068;-82
2022/05/28 06:27:10;;;;;;;6.47;0.40;;;16.70;98.40;;;;;;5020786;28;20045;-82
2022/05/28 06:33:47;;;;;;;3.67;0.60;;;16.80;96.90;;;;;;4989752;28;20041;-82
2022/05/28 06:40:10;;;;;;;3.55;0.50;;;16.90;96.30;;;;;;4941873;28;20395;-86
2022/05/28 06:44:13;;;;;;;4.68;0.90;;;16.90;95.30;;;;;;4960026;28;20058;-87
2022/05/28 06:48:16;;;;;;;5.80;0.80;;;16.70;94.30;;;;;;4923149;28;20087;-80
2022/05/28 06:52:05;;;;;;;3.60;0.43;;;16.40;94.70;;;;;;4898386;29;20044;-83
2022/05/28 06:55:48;;;;;;;3.97;0.50;;;16.40;94.40;;;;;;4851066;29;20037;-80
2022/05/28 07:03:24;;;;;;;3.55;0.60;;;16.10;94.50;;;;;;4869682;29;20060;-80
2022/05/28 07:06:39;;;;;;;;;;;;;;;;;;;;;
2022/05/28 07:09:53;;;;;;;3.17;0.70;;;16.80;93.30;;;;;;4855600;29;20544;-86
2022/05/28 07:19:31;;;;;;;2.42;0.40;;;17.30;91.70;;;;;;4817774;29;20022;-87
2022/05/28 07:27:25;;;;;;;6.18;0.77;;;17.50;91.60;;;;;;4816877;29;20046;-88
2022/05/28 07:30:23;;;;;;;3.08;0.40;;;17.30;91.60;;;;;;4815855;29;20447;-85
2022/05/28 07:33:16;;;;;;;5.68;0.43;;;17.20;91.70;;;;;;4864639;29;20051;-86
2022/05/28 07:36:22;;;;;;;5.32;0.77;;;17.10;91.60;;;;;;4875412;29;20057;-82
2022/05/28 07:38:55;;;;;;;6.03;0.60;;;16.80;91.80;;;;;;4898468;29;20055;-85
2022/05/28 07:41:26;;;;;;;4.22;0.68;;;16.50;92.10;;;;;;4940664;28;20045;-86
2022/05/28 07:43:54;;;;;;;9.15;0.90;;;16.50;91.90;;;;;;4970465;28;20645;-85
2022/05/28 07:46:27;;;;;;;6.28;0.60;;;16.80;91.80;;;;;;4956737;28;20517;-86
2022/05/28 07:48:55;;;;;;;4.35;0.50;;;17.10;91.80;;;;;;4965631;28;20046;-86
2022/05/28 07:51:23;;;;;;;6.28;0.68;;;17.20;91.30;;;;;;4949147;28;20478;-86
2022/05/28 07:53:49;;;;;;;4.82;1.05;;;17.30;91.10;;;;;;4983345;28;20031;-85
2022/05/28 07:56:16;;;;;;;5.57;0.52;;;17.30;90.60;;;;;;4934109;28;20035;-87
2022/05/28 07:58:43;;;;;;;6.80;1.05;;;17.20;90.40;;;;;;4983121;28;20065;-86
2022/05/28 08:01:25;;;;;;;8.05;0.63;;;17.00;90.40;;;;;;4991160;28;20053;-87
2022/05/28 08:03:52;;;;;;;5.78;0.60;;;16.90;90.60;;;;;;5008783;28;20044;-86
2022/05/28 08:06:19;;;;;;;2.08;0.40;;;16.90;90.80;;;;;;5009740;28;20481;-86
2022/05/28 08:08:47;;;;;;;6.22;0.70;;;16.80;91.00;;;;;;5020089;28;20034;-86
2022/05/28 08:11:14;;;;;;;5.05;0.63;;;16.80;91.20;;;;;;5010729;28;20036;-85
2022/05/28 08:13:41;;;;;;;4.25;0.50;;;16.80;91.40;;;;;;5008957;28;20043;-86
2022/05/28 08:16:07;;;;;;;5.97;0.90;;;16.80;91.50;;;;;;5008705;28;20033;-86
2022/05/28 08:18:36;;;;;;;4.95;0.70;;;16.70;91.20;;;;;;5021730;28;20490;-85
2022/05/28 08:23:53;;;;;;;4.20;0.60;;;16.80;91.00;;;;;;5010067;28;20030;-87
2022/05/28 08:26:20;;;;;;;5.47;0.50;;;17.20;90.80;;;;;;4973557;28;20036;-87
2022/05/28 08:28:48;;;;;;;6.38;0.60;;;17.60;90.20;;;;;;5007390;28;20018;-87
2022/05/28 08:31:16;;;;;;;5.63;0.68;;;18.00;89.30;;;;;;5021779;28;20029;-79
2022/05/28 08:33:43;;;;;;;5.13;0.50;;;18.60;87.90;;;;;;5036888;28;20074;-78
2022/05/28 08:36:10;;;;;;;6.20;0.80;;;19.10;86.60;;;;;;5024809;28;20021;-79
2022/05/28 08:38:37;;;;;;;7.50;0.60;;;19.20;85.50;;;;;;5002052;28;20033;-78
2022/05/28 08:41:16;;;;;;;5.10;0.50;;;19.10;85.20;;;;;;5008794;28;20034;-78
2022/05/28 08:44:25;;;;;;;5.95;0.70;;;18.90;85.00;;;;;;5018878;28;20049;-79
2022/05/28 08:47:39;;;;;;;9.52;0.80;;;18.60;84.30;;;;;;5007444;28;20041;-79
2022/05/28 08:51:34;;;;;;;4.80;0.60;;;18.60;82.40;;;;;;4920518;28;20051;-79
2022/05/28 08:55:00;;;;;;;4.40;0.70;;;18.30;79.60;;;;;;5013341;28;20045;-79
2022/05/28 08:58:25;;;;;;;3.45;0.47;;;18.40;79.30;;;;;;4963608;28;20060;-78
2022/05/28 09:01:19;;;;;;;5.30;0.80;;;18.60;79.30;;;;;;5015876;28;20070;-78
2022/05/28 09:04:15;;;;;;;4.22;1.10;;;18.40;77.30;;;;;;5015969;28;20044;-78
2022/05/28 09:07:38;;;;;;;4.60;0.60;;;18.10;78.20;;;;;;5010934;28;20521;-78
2022/05/28 09:10:32;;;;;;;3.75;0.52;;;17.70;78.60;;;;;;4939281;28;20044;-78
2022/05/28 09:14:03;;;;;;;4.10;0.60;;;17.50;79.20;;;;;;4930616;28;20586;-78
2022/05/28 09:20:48;;;;;;;4.20;0.50;;;18.40;77.10;;;;;;4932700;28;20403;-79
2022/05/28 09:23:49;;;;;;;3.28;0.70;;;18.80;75.70;;;;;;4907534;29;20052;-78
2022/05/28 09:30:13;;;;;;;3.53;0.55;;;19.20;71.90;;;;;;4911001;29;20043;-79
2022/05/28 09:33:24;;;;;;;6.40;2.63;;;19.70;69.90;;;;;;4890172;29;20053;-80
2022/05/28 09:36:08;;;;;;;4.82;0.60;;;20.20;68.20;;;;;;4909839;29;20047;-80
2022/05/28 09:39:15;;;;;;;2.75;0.40;;;20.20;66.30;;;;;;4891716;29;20055;-79
2022/05/28 09:46:32;;;;;;;3.88;0.50;;;19.60;68.00;;;;;;5006166;28;20054;-82
2022/05/28 09:49:37;;;;;;;4.88;0.70;;;19.30;70.40;;;;;;4999031;28;20049;-79
2022/05/28 09:55:35;;;;;;;5.90;0.60;;;19.80;70.60;;;;;;4974788;28;20045;-79
2022/05/28 09:58:09;;;;;;;3.80;0.50;;;20.20;68.90;;;;;;5004245;28;20044;-79
2022/05/28 10:01:42;;;;;;;4.10;0.90;;;20.20;67.90;;;;;;4992536;28;20049;-78
2022/05/28 10:05:01;;;;;;;2.85;0.50;;;20.30;67.80;;;;;;5028762;28;20038;-79
2022/05/28 10:08:13;;;;;;;4.15;1.08;;;20.60;67.10;;;;;;5020967;28;20050;-80
2022/05/28 10:11:14;;;;;;;3.20;1.02;;;20.80;66.50;;;;;;4970824;28;20040;-80
2022/05/28 10:14:03;;;;;;;3.20;0.77;;;21.20;65.10;;;;;;5026892;28;20045;-81
2022/05/28 10:17:07;;;;;;;3.17;0.60;;;21.50;64.00;;;;;;5027330;28;20057;-81
2022/05/28 10:20:19;;;;;;;4.40;0.73;;;21.30;63.80;;;;;;5048566;28;20266;-81
2022/05/28 10:23:21;;;;;;;5.28;0.70;;;20.80;65.00;;;;;;4998114;28;20045;-82
2022/05/28 10:33:30;;;;;;;4.75;0.93;;;20.90;64.40;;;;;;4986682;28;20042;-83
2022/05/28 10:41:11;;;;;;;4.35;0.68;;;21.80;62.60;;;;;;4979847;28;23093;-80
2022/05/28 10:43:38;;;;;;;6.35;1.05;;;22.30;61.80;;;;;;4985909;28;20112;-80
2022/05/28 10:46:59;;;;;;;3.80;0.60;;;22.40;60.30;;;;;;4964119;28;20049;-80
2022/05/28 10:50:07;;;;;;;3.45;0.68;;;22.60;59.20;;;;;;4960848;28;20501;-81
2022/05/28 10:53:40;;;;;;;3.33;0.85;;;23.00;58.30;;;;;;4966294;28;20594;-80
2022/05/28 10:57:15;;;;;;;4.80;0.60;;;22.70;57.60;;;;;;4968521;28;20078;-83
2022/05/28 11:12:10;;;;;;;4.85;0.73;;;22.20;58.20;;;;;;4997750;28;20039;-79
2022/05/28 11:15:22;;;;;;;5.38;0.70;;;22.10;59.10;;;;;;4981883;28;20496;-80
2022/05/28 11:19:15;;;;;;;4.55;0.95;;;22.70;59.30;;;;;;4943210;28;20038;-81
2022/05/28 11:23:06;;;;;;;6.10;0.93;;;23.50;56.30;;;;;;4958708;28;20062;-81
2022/05/28 11:26:28;;;;;;;3.00;0.70;;;24.30;54.70;;;;;;4916737;28;20068;-81
2022/05/28 11:29:12;;;;;;;3.42;0.88;;;25.20;51.70;;;;;;4913305;29;20047;-83
2022/05/28 11:32:08;;;;;;;4.57;0.65;;;25.90;51.20;;;;;;4925401;28;20475;-80
2022/05/28 11:34:50;;;;;;;3.72;0.65;;;25.90;49.20;;;;;;4924603;28;20042;-81
2022/05/28 11:37:44;;;;;;;2.92;0.52;;;25.30;49.10;;;;;;4877973;29;20044;-81
2022/05/28 11:40:47;;;;;;;5.43;0.63;;;24.10;50.00;;;;;;4885073;29;20053;-80
2022/05/28 11:43:28;;;;;;;2.60;0.65;;;23.60;51.20;;;;;;4937057;28;20055;-81
2022/05/28 11:46:20;;;;;;;3.50;0.80;;;24.10;50.90;;;;;;4912298;29;21390;-81
2022/05/28 11:52:03;;;;;;;3.60;0.60;;;25.70;48.30;;;;;;4946914;28;20062;-86
2022/05/28 11:54:36;;;;;;;3.17;0.68;;;26.20;47.40;;;;;;4957010;28;20517;-85
2022/05/28 11:57:20;;;;;;;2.95;0.52;;;26.50;46.10;;;;;;4962814;28;20049;-87
2022/05/28 11:59:47;;;;;;;2.25;0.40;;;26.80;44.70;;;;;;4962537;28;20481;-85
2022/05/28 12:02:23;;;;;;;2.20;0.50;;;27.00;44.10;;;;;;4945558;28;20041;-87
2022/05/28 12:04:50;;;;;;;3.03;0.80;;;27.30;43.40;;;;;;4989788;28;20042;-88
2022/05/28 12:07:37;;;;;;;2.40;0.45;;;27.60;42.60;;;;;;4988340;28;20060;-87
2022/05/28 12:10:15;;;;;;;2.85;0.50;;;28.20;42.00;;;;;;5016943;28;20029;-88
2022/05/28 12:12:58;;;;;;;3.83;0.60;;;28.10;42.10;;;;;;4975309;28;20030;-86
2022/05/28 12:15:31;;;;;;;1.77;0.50;;;27.00;41.60;;;;;;5006572;28;20046;-87
2022/05/28 12:18:28;;;;;;;3.38;0.70;;;26.40;42.50;;;;;;4998938;28;20044;-86
2022/05/28 12:21:00;;;;;;;3.75;0.50;;;26.50;41.40;;;;;;4980236;28;20481;-87
2022/05/28 12:23:41;;;;;;;5.47;0.50;;;25.90;42.20;;;;;;5002508;28;20405;-86
2022/05/28 12:26:46;;;;;;;1.98;0.43;;;25.10;43.20;;;;;;4981408;28;20040;-86
2022/05/28 12:29:34;;;;;;;3.53;0.70;;;24.50;44.10;;;;;;5014191;28;20052;-86
2022/05/28 12:32:18;;;;;;;3.17;0.60;;;24.80;44.00;;;;;;5016751;28;20152;-85
2022/05/28 12:34:59;;;;;;;3.17;0.60;;;24.20;44.50;;;;;;5004808;28;20033;-87
2022/05/28 12:38:08;;;;;;;4.18;0.85;;;24.40;45.50;;;;;;5013786;28;20037;-86
2022/05/28 12:40:59;;;;;;;2.38;0.40;;;25.40;44.20;;;;;;4987065;28;22361;-86
2022/05/28 12:52:08;;;;;;;2.35;0.60;;;28.80;39.20;;;;;;4872588;29;20052;-85
2022/05/28 13:03:53;;;;;;;2.85;0.50;;;29.20;38.20;;;;;;5005358;28;20038;-82
2022/05/28 13:07:06;;;;;;;3.17;0.50;;;28.50;38.80;;;;;;4992794;28;20041;-85
2022/05/28 13:09:59;;;;;;;2.33;0.60;;;27.20;40.30;;;;;;4938330;28;21148;-83
2022/05/28 13:13:21;;;;;;;3.67;0.73;;;25.90;42.20;;;;;;4995616;28;20053;-87
2022/05/28 13:17:00;;;;;;;4.35;0.82;;;25.00;43.80;;;;;;4991080;28;20038;-88
2022/05/28 13:20:38;;;;;;;6.35;0.90;;;24.60;44.80;;;;;;5006277;28;20392;-86
2022/05/28 13:23:55;;;;;;;5.15;0.80;;;24.20;45.70;;;;;;5027115;28;20040;-87
2022/05/28 13:27:21;;;;;;;6.13;0.70;;;24.60;46.40;;;;;;5041177;28;20044;-87
2022/05/28 13:34:11;;;;;;;3.92;0.93;;;28.20;41.80;;;;;;5029853;28;20072;-87
2022/05/28 13:37:51;;;;;;;6.22;0.80;;;27.50;41.70;;;;;;5024965;28;20041;-86
2022/05/28 13:40:29;;;;;;;4.70;0.60;;;26.30;43.20;;;;;;4948418;28;20040;-87
2022/05/28 13:43:05;;;;;;;5.13;1.20;;;24.80;44.50;;;;;;5020251;28;21115;-87
2022/05/28 13:45:36;;;;;;;4.25;1.17;;;23.80;46.20;;;;;;5058999;28;20476;-88
2022/05/28 13:48:07;;;;;;;5.53;1.98;;;23.00;47.00;;;;;;5054311;28;20028;-86
2022/05/28 13:50:38;;;;;;;4.20;1.50;;;22.70;48.00;;;;;;5017134;28;20021;-87
2022/05/28 13:53:08;;;;;;;8.63;1.67;;;22.70;48.40;;;;;;5046444;28;20027;-87
2022/05/28 13:55:40;;;;;;;3.15;0.95;;;23.90;46.80;;;;;;5050019;28;20032;-87
2022/05/28 13:58:15;;;;;;;;;;;24.10;46.00;;;;;;5047741;28;20033;-86
2022/05/28 14:00:42;;;;;;;2.40;0.40;;;25.10;44.60;;;;;;5048522;28;20360;-87
2022/05/28 14:03:08;;;;;;;2.33;0.40;;;26.50;41.30;;;;;;4999012;28;20724;-86
2022/05/28 14:05:44;;;;;;;16.35;14.05;;;27.80;38.30;;;;;;5001850;28;20056;-85
2022/05/28 14:08:26;;;;;;;3.13;1.08;;;29.00;37.50;;;;;;4999228;28;20037;-85
2022/05/28 14:11:04;;;;;;;3.67;0.90;;;29.90;36.90;;;;;;5024139;28;20055;-85
2022/05/28 14:13:34;;;;;;;3.95;0.68;;;30.40;37.30;;;;;;5045326;28;20029;-90
2022/05/28 14:16:00;;;;;;;5.65;0.70;;;31.00;36.70;;;;;;5009634;28;20037;-86
2022/05/28 14:18:31;;;;;;;2.42;0.60;;;31.20;36.30;;;;;;5039903;28;20040;-82
2022/05/28 14:21:09;;;;;;;3.45;0.95;;;31.30;36.30;;;;;;5016171;28;20025;-83
2022/05/28 14:23:45;;;;;;;3.28;0.70;;;31.30;36.10;;;;;;5030611;28;20025;-82
2022/05/28 14:26:15;;;;;;;5.13;1.10;;;31.20;36.60;;;;;;5032168;28;20032;-82
2022/05/28 14:28:43;;;;;;;3.60;1.00;;;30.50;36.90;;;;;;5027872;28;20025;-82
2022/05/28 14:31:16;;;;;;;5.85;2.03;;;29.50;37.40;;;;;;5045134;28;20037;-82
2022/05/28 14:33:51;;;;;;;5.07;1.27;;;28.20;38.60;;;;;;5043436;28;20014;-81
2022/05/28 14:36:33;;;;;;;6.13;1.00;;;26.70;40.40;;;;;;5025058;28;20025;-81
2022/05/28 14:39:08;;;;;;;4.43;0.80;;;25.20;43.00;;;;;;5011038;28;20044;-82
2022/05/28 14:41:47;;;;;;;4.03;0.88;;;24.10;45.10;;;;;;5042056;28;20024;-81
2022/05/28 14:44:40;;;;;;;4.90;0.60;;;23.40;46.60;;;;;;4996577;28;21094;-80
2022/05/28 14:47:55;;;;;;;3.85;0.90;;;23.70;48.00;;;;;;4979805;28;20181;-82
2022/05/28 14:50:51;;;;;;;5.65;0.88;;;25.90;45.60;;;;;;4988515;28;20414;-80
2022/05/28 14:53:50;;;;;;;3.85;0.70;;;26.90;43.50;;;;;;4986682;28;20050;-82
2022/05/28 14:57:06;;;;;;;5.85;0.80;;;25.70;44.20;;;;;;4990890;28;20046;-81
2022/05/28 15:04:50;;;;;;;5.47;0.90;;;23.30;47.70;;;;;;4959860;28;20058;-84
2022/05/28 15:16:32;;;;;;;6.90;0.88;;;21.60;52.90;;;;;;4902745;29;20055;-86
2022/05/28 15:20:47;;;;;;;4.20;0.60;;;23.10;50.10;;;;;;4817977;29;20070;-85
2022/05/28 15:23:51;;;;;;;4.70;0.80;;;22.20;50.20;;;;;;4819797;29;20046;-86
2022/05/28 15:26:35;;;;;;;2.85;0.80;;;21.20;51.80;;;;;;4807500;29;20627;-85
2022/05/28 15:29:41;;;;;;;6.15;1.25;;;20.50;53.00;;;;;;4806867;29;20072;-85
2022/05/28 15:33:07;;;;;;;4.60;1.50;;;20.10;54.20;;;;;;4824913;29;20507;-85
2022/05/28 15:43:47;;;;;;;5.50;1.73;;;19.50;56.40;;;;;;4804615;29;20058;-85
2022/05/28 15:46:14;;;;;;;5.93;0.77;;;19.70;56.70;;;;;;4819041;29;20053;-86
2022/05/28 15:48:40;;;;;;;3.83;0.80;;;19.80;56.90;;;;;;4855874;29;20041;-85
2022/05/28 15:51:07;;;;;;;4.18;0.90;;;20.00;56.70;;;;;;4958837;28;20041;-86
2022/05/28 15:53:33;;;;;;;5.03;0.70;;;20.50;56.10;;;;;;5007658;28;20029;-85
2022/05/28 15:56:03;;;;;;;5.85;1.05;;;20.90;55.60;;;;;;5007744;28;20065;-86
2022/05/28 15:58:33;;;;;;;3.70;0.60;;;21.20;54.80;;;;;;4993142;28;20489;-86
2022/05/28 16:01:24;;;;;;;5.72;0.73;;;21.20;54.70;;;;;;5004584;28;20044;-85
2022/05/28 16:03:53;;;;;;;6.95;0.80;;;21.10;53.50;;;;;;4985739;28;20042;-87
2022/05/28 16:06:23;;;;;;;3.35;0.52;;;20.90;53.10;;;;;;5019718;28;20045;-86
2022/05/28 16:08:50;;;;;;;3.33;0.50;;;20.70;53.00;;;;;;4993996;28;20033;-87
2022/05/28 16:11:26;;;;;;;4.72;0.68;;;20.40;53.20;;;;;;5021542;28;20033;-88
2022/05/28 16:13:56;;;;;;;5.40;0.70;;;20.00;53.70;;;;;;5022025;28;20041;-87
2022/05/28 16:16:24;;;;;;;7.50;0.70;;;19.70;54.40;;;;;;5005886;28;20045;-85
2022/05/28 16:18:53;;;;;;;6.10;0.60;;;19.50;55.10;;;;;;5004183;28;20061;-85
2022/05/28 16:21:20;;;;;;;5.45;0.77;;;19.20;55.80;;;;;;5005648;28;20029;-86
2022/05/28 16:23:48;;;;;;;4.22;0.47;;;18.90;56.40;;;;;;5005625;28;20046;-85
2022/05/28 16:26:19;;;;;;;5.38;1.00;;;18.80;57.00;;;;;;4989979;28;20040;-85
2022/05/28 16:28:47;;;;;;;6.72;0.63;;;18.70;57.30;;;;;;4992309;28;20516;-85
2022/05/28 16:31:15;;;;;;;5.22;0.80;;;18.60;57.80;;;;;;5006653;28;20517;-84
2022/05/28 16:33:42;;;;;;;5.28;0.85;;;18.30;58.40;;;;;;4990981;28;20034;-80
2022/05/28 16:36:08;;;;;;;4.32;0.60;;;18.20;59.20;;;;;;5023139;28;20037;-80
2022/05/28 16:38:35;;;;;;;5.68;0.60;;;18.00;60.20;;;;;;5003093;28;20051;-82
2022/05/28 16:41:02;;;;;;;7.32;0.80;;;17.80;60.90;;;;;;4970499;28;20725;-85
2022/05/28 16:43:28;;;;;;;6.07;0.95;;;17.70;61.70;;;;;;4979267;28;20037;-82
2022/05/28 16:45:54;;;;;;;7.35;0.95;;;17.60;62.20;;;;;;5021907;28;20042;-82
2022/05/28 16:49:35;;;;;;;4.45;0.60;;;17.50;62.50;;;;;;4998850;28;20042;-86
2022/05/28 16:52:22;;;;;;;9.85;5.25;;;17.40;62.80;;;;;;4938904;28;20043;-84